createdAt,value
2022-10-06T00:01:52.021Z,3.92
2022-10-06T00:04:56.739Z,3.75
2022-10-06T00:08:02.193Z,4.60
2022-10-06T00:11:07.774Z,5.05
2022-10-06T00:14:12.322Z,2.40
2022-10-06T00:17:16.896Z,3.00
2022-10-06T00:20:21.781Z,8.77
2022-10-06T00:23:27.495Z,4.23
2022-10-06T00:26:31.991Z,3.05
2022-10-06T00:29:37.818Z,2.40
2022-10-06T00:32:42.619Z,4.25
2022-10-06T00:35:47.337Z,9.27
2022-10-06T00:38:52.171Z,3.58
2022-10-06T00:41:56.914Z,1.92
2022-10-06T00:45:05.815Z,1.73
2022-10-06T00:48:17.319Z,6.50
2022-10-06T00:51:23.148Z,4.18
2022-10-06T00:54:29.261Z,1.48
2022-10-06T00:57:37.785Z,3.13
2022-10-06T01:00:45.516Z,23.52
2022-10-06T01:03:58.331Z,65.45
2022-10-06T01:07:13.283Z,48.50
2022-10-06T01:10:18.004Z,11.38
2022-10-06T01:13:23.042Z,3.37
2022-10-06T01:16:33.265Z,1.77
2022-10-06T01:20:12.426Z,38.63
2022-10-06T01:23:17.914Z,4.60
2022-10-06T01:26:27.800Z,2.40
2022-10-06T01:29:34.981Z,3.28
2022-10-06T01:32:54.662Z,4.05
2022-10-06T01:36:00.531Z,2.25
2022-10-06T01:39:05.990Z,2.35
2022-10-06T01:42:11.930Z,1.97
2022-10-06T01:45:17.224Z,1.98
2022-10-06T01:48:21.855Z,2.92
2022-10-06T01:51:31.768Z,1.38
2022-10-06T01:54:39.824Z,1.20
2022-10-06T01:57:45.309Z,9.40
2022-10-06T02:00:51.799Z,5.68
2022-10-06T02:03:59.253Z,1.60
2022-10-06T02:07:04.762Z,7.38
2022-10-06T02:10:17.410Z,1.85
2022-10-06T02:13:26.666Z,0.57
2022-10-06T02:16:39.280Z,1.55
2022-10-06T02:19:43.986Z,2.15
2022-10-06T02:22:48.480Z,1.42
2022-10-06T02:26:06.880Z,2.20
2022-10-06T02:29:12.600Z,1.50
2022-10-06T02:32:16.995Z,3.22
2022-10-06T02:35:22.195Z,0.40
2022-10-06T02:38:28.128Z,0.68
2022-10-06T02:41:33.542Z,1.98
2022-10-06T02:44:41.057Z,12.65
2022-10-06T02:47:45.777Z,3.22
2022-10-06T02:50:59.516Z,2.90
2022-10-06T02:54:04.137Z,8.20
2022-10-06T02:57:09.007Z,4.43
2022-10-06T03:00:15.717Z,7.43
2022-10-06T03:03:25.095Z,3.80
2022-10-06T03:06:32.565Z,3.53
2022-10-06T03:09:44.454Z,1.85
2022-10-06T03:12:49.330Z,5.25
2022-10-06T03:15:54.400Z,0.50
2022-10-06T03:19:00.088Z,3.40
2022-10-06T03:22:07.156Z,1.50
2022-10-06T03:25:22.559Z,0.65
2022-10-06T03:28:28.874Z,1.80
2022-10-06T03:31:34.493Z,0.57
2022-10-06T03:34:40.027Z,1.23
2022-10-06T03:37:48.368Z,2.05
2022-10-06T03:40:53.115Z,12.98
2022-10-06T03:44:00.318Z,0.50
2022-10-06T03:47:05.405Z,4.32
2022-10-06T03:50:11.692Z,3.67
2022-10-06T03:53:16.350Z,7.53
2022-10-06T03:56:34.185Z,0.67
2022-10-06T03:59:38.899Z,1.20
2022-10-06T04:02:44.020Z,0.93
2022-10-06T04:05:57.148Z,0.80
2022-10-06T04:09:03.555Z,2.50
2022-10-06T04:18:19.988Z,0.70
2022-10-06T04:21:26.041Z,1.10
2022-10-06T04:24:31.770Z,1.08
2022-10-06T04:27:36.287Z,0.68
2022-10-06T04:30:44.838Z,1.00
2022-10-06T04:33:53.097Z,2.83
2022-10-06T04:36:58.771Z,0.55
2022-10-06T04:40:03.721Z,0.50
2022-10-06T04:43:10.198Z,2.00
2022-10-06T04:46:37.778Z,0.55
2022-10-06T04:49:42.261Z,2.67
2022-10-06T04:52:47.339Z,1.05
2022-10-06T04:56:11.539Z,1.60
2022-10-06T04:59:16.410Z,9.40
2022-10-06T05:02:23.579Z,1.10
2022-10-06T05:05:30.766Z,0.38
2022-10-06T05:08:36.903Z,0.57
2022-10-06T05:14:49.111Z,0.55
2022-10-06T05:21:06.621Z,2.05
2022-10-06T05:24:11.674Z,0.50
2022-10-06T05:27:16.549Z,0.77
2022-10-06T05:30:21.151Z,1.40
2022-10-06T05:33:27.384Z,5.13
2022-10-06T05:36:34.667Z,0.95
2022-10-06T05:39:40.293Z,3.90
2022-10-06T05:42:45.293Z,1.02
2022-10-06T05:45:58.748Z,0.55
2022-10-06T05:49:09.998Z,4.97
2022-10-06T05:52:17.485Z,7.70
2022-10-06T05:55:22.382Z,0.90
2022-10-06T05:58:27.844Z,5.50
2022-10-06T06:01:41.659Z,3.35
2022-10-06T06:04:56.759Z,2.08
2022-10-06T06:08:01.798Z,9.37
2022-10-06T06:11:08.592Z,50.28
2022-10-06T06:14:20.824Z,3.47
2022-10-06T06:17:25.817Z,2.95
2022-10-06T06:20:30.336Z,2.05
2022-10-06T06:23:40.880Z,10.18
2022-10-06T06:26:45.245Z,4.15
2022-10-06T06:29:50.419Z,1.55
2022-10-06T06:32:58.969Z,1.13
2022-10-06T06:36:04.875Z,3.30
2022-10-06T06:39:12.299Z,1.90
2022-10-06T06:42:17.656Z,2.70
2022-10-06T06:45:25.084Z,5.22
2022-10-06T06:48:38.794Z,6.13
2022-10-06T06:51:46.013Z,5.72
2022-10-06T06:54:52.590Z,75.43
2022-10-06T06:57:57.145Z,23.83
2022-10-06T07:01:09.303Z,4.90
2022-10-06T07:04:16.878Z,6.35
2022-10-06T07:07:23.753Z,4.88
2022-10-06T07:10:29.171Z,4.05
2022-10-06T07:13:33.773Z,7.50
2022-10-06T07:16:56.612Z,11.32
2022-10-06T07:20:20.891Z,8.48
2022-10-06T07:23:44.382Z,4.22
2022-10-06T07:26:53.401Z,7.63
2022-10-06T07:30:00.133Z,9.00
2022-10-06T07:33:05.951Z,4.28
2022-10-06T07:36:12.101Z,6.20
2022-10-06T07:39:17.112Z,9.88
2022-10-06T07:42:22.403Z,6.28
2022-10-06T07:45:47.748Z,9.48
2022-10-06T07:48:59.372Z,13.60
2022-10-06T07:52:04.199Z,8.85
2022-10-06T07:55:10.002Z,3.50
2022-10-06T07:58:39.676Z,4.97
2022-10-06T08:01:47.005Z,6.18
2022-10-06T08:04:51.723Z,2.42
2022-10-06T08:07:57.888Z,3.78
2022-10-06T08:11:02.503Z,6.88
2022-10-06T08:14:07.268Z,4.88
2022-10-06T08:17:12.128Z,14.10
2022-10-06T08:20:19.221Z,40.40
2022-10-06T08:23:23.876Z,36.00
2022-10-06T08:26:31.873Z,74.38
2022-10-06T08:29:36.752Z,55.78
2022-10-06T08:32:43.699Z,62.10
2022-10-06T08:35:51.051Z,104.32
2022-10-06T08:38:55.879Z,17.50
2022-10-06T08:42:00.621Z,31.57
2022-10-06T08:45:12.104Z,6.47
2022-10-06T08:48:30.125Z,8.30
2022-10-06T08:51:50.114Z,14.82
2022-10-06T08:55:03.293Z,8.98
2022-10-06T08:58:38.566Z,19.08
2022-10-06T09:01:52.371Z,22.65
2022-10-06T09:05:00.236Z,9.50
2022-10-06T09:08:14.961Z,47.88
2022-10-06T09:11:40.916Z,147.20
2022-10-06T09:14:53.034Z,98.00
2022-10-06T09:18:23.667Z,52.42
2022-10-06T09:21:46.485Z,57.13
2022-10-06T09:24:58.207Z,45.47
2022-10-06T09:28:04.324Z,66.25
2022-10-06T09:31:56.993Z,64.35
2022-10-06T09:35:01.822Z,89.70
2022-10-06T09:38:09.229Z,106.28
2022-10-06T09:41:14.840Z,109.22
2022-10-06T09:44:26.552Z,114.68
2022-10-06T09:47:34.086Z,126.75
2022-10-06T09:50:39.071Z,189.68
2022-10-06T09:54:11.381Z,162.30
2022-10-06T09:57:28.653Z,160.88
2022-10-06T10:00:40.432Z,196.20
2022-10-06T10:07:32.085Z,168.05
2022-10-06T10:10:37.713Z,168.40
2022-10-06T10:13:46.272Z,161.82
2022-10-06T10:16:53.364Z,148.27
2022-10-06T10:20:03.601Z,126.95
2022-10-06T10:23:24.132Z,91.45
2022-10-06T10:27:14.278Z,109.45
2022-10-06T10:30:19.437Z,119.53
2022-10-06T10:33:59.524Z,112.35
2022-10-06T10:37:25.207Z,130.73
2022-10-06T10:40:32.049Z,110.30
2022-10-06T10:43:52.179Z,56.85
2022-10-06T10:47:23.021Z,62.08
2022-10-06T10:50:30.593Z,78.35
2022-10-06T10:53:52.465Z,71.70
2022-10-06T10:56:57.320Z,62.83
2022-10-06T11:00:08.491Z,55.07
2022-10-06T11:03:14.017Z,50.75
2022-10-06T11:06:28.788Z,53.35
2022-10-06T11:09:36.494Z,44.47
2022-10-06T11:12:50.237Z,70.85
2022-10-06T11:16:13.040Z,54.58
2022-10-06T11:19:36.337Z,50.88
2022-10-06T11:23:25.626Z,41.28
2022-10-06T11:27:00.508Z,159.07
2022-10-06T11:30:27.340Z,110.55
2022-10-06T11:33:44.585Z,103.25
2022-10-06T11:37:10.817Z,122.25
2022-10-06T11:40:53.498Z,43.92
2022-10-06T11:44:01.153Z,55.67
2022-10-06T11:47:35.369Z,37.53
2022-10-06T11:50:45.454Z,45.85
2022-10-06T11:53:53.503Z,42.55
2022-10-06T11:56:58.030Z,21.77
2022-10-06T12:00:18.258Z,21.52
2022-10-06T12:03:34.498Z,27.67
2022-10-06T12:06:47.808Z,35.72
2022-10-06T12:09:53.331Z,32.50
2022-10-06T12:20:21.954Z,55.38
2022-10-06T12:23:30.460Z,50.00
2022-10-06T12:27:16.131Z,39.25
2022-10-06T12:30:50.477Z,39.00
2022-10-06T12:33:55.168Z,33.42
2022-10-06T12:37:54.709Z,35.30
2022-10-06T12:41:00.544Z,34.53
2022-10-06T12:44:23.247Z,26.85
2022-10-06T12:47:41.489Z,30.98
2022-10-06T12:50:46.530Z,48.35
2022-10-06T12:54:02.092Z,56.20
2022-10-06T12:57:17.833Z,41.72
2022-10-06T13:00:35.452Z,36.33
2022-10-06T13:03:40.483Z,42.92
2022-10-06T13:06:51.181Z,33.60
2022-10-06T13:10:15.083Z,37.17
2022-10-06T13:13:25.535Z,67.68
2022-10-06T13:16:34.061Z,58.75
2022-10-06T13:19:39.682Z,55.03
2022-10-06T13:25:58.767Z,48.30
2022-10-06T13:29:03.585Z,44.85
2022-10-06T13:32:19.684Z,43.57
2022-10-06T13:35:27.223Z,49.08
2022-10-06T13:38:35.809Z,43.17
2022-10-06T13:41:53.688Z,56.75
2022-10-06T13:45:03.796Z,48.00
2022-10-06T13:48:18.899Z,55.03
2022-10-06T13:51:30.569Z,50.05
2022-10-06T13:54:47.582Z,43.75
2022-10-06T13:58:13.485Z,44.40
2022-10-06T14:01:28.495Z,43.33
2022-10-06T14:04:35.937Z,42.33
2022-10-06T14:07:46.539Z,42.60
2022-10-06T14:10:56.284Z,37.58
2022-10-06T14:14:03.499Z,36.92
2022-10-06T14:17:19.196Z,41.03
2022-10-06T14:20:46.779Z,38.03
2022-10-06T14:23:55.236Z,62.67
2022-10-06T14:27:05.472Z,71.38
2022-10-06T14:30:11.913Z,72.57
2022-10-06T14:33:17.123Z,59.70
2022-10-06T14:36:29.762Z,51.00
2022-10-06T14:39:36.583Z,50.10
2022-10-06T14:42:41.072Z,45.38
2022-10-06T14:45:46.125Z,48.13
2022-10-06T14:48:52.081Z,44.87
2022-10-06T14:51:57.656Z,37.00
2022-10-06T14:55:02.318Z,38.50
2022-10-06T14:58:07.333Z,36.85
2022-10-06T15:01:18.096Z,35.15
2022-10-06T15:04:25.794Z,37.97
2022-10-06T15:07:48.857Z,38.38
2022-10-06T15:10:54.283Z,39.85
2022-10-06T15:14:00.003Z,37.80
2022-10-06T15:17:04.816Z,37.22
2022-10-06T15:20:10.680Z,39.28
2022-10-06T15:26:40.406Z,34.58
2022-10-06T15:29:45.542Z,33.85
2022-10-06T15:32:50.653Z,32.22
2022-10-06T15:36:18.220Z,28.67
2022-10-06T15:39:25.361Z,34.25
2022-10-06T15:42:30.033Z,31.08
2022-10-06T15:45:35.078Z,34.40
2022-10-06T15:48:44.170Z,35.33
2022-10-06T15:51:52.245Z,22.63
2022-10-06T15:54:58.966Z,33.65
2022-10-06T15:58:03.476Z,25.92
2022-10-06T16:01:11.746Z,24.20
2022-10-06T16:04:26.727Z,24.98
2022-10-06T16:07:33.494Z,28.58
2022-10-06T16:10:38.195Z,22.77
2022-10-06T16:13:42.728Z,19.38
2022-10-06T16:16:48.944Z,26.08
2022-10-06T16:19:53.500Z,20.58
2022-10-06T16:22:57.928Z,18.83
2022-10-06T16:26:05.490Z,25.23
2022-10-06T16:29:10.473Z,22.20
2022-10-06T16:32:14.954Z,31.57
2022-10-06T16:35:19.475Z,24.20
2022-10-06T16:38:24.601Z,25.33
2022-10-06T16:41:29.134Z,19.98
2022-10-06T16:44:33.720Z,24.13
2022-10-06T16:47:38.214Z,19.35
2022-10-06T16:50:42.462Z,16.52
2022-10-06T16:54:01.080Z,28.15
2022-10-06T16:57:07.602Z,27.25
2022-10-06T17:00:13.130Z,15.43
2022-10-06T17:03:17.767Z,25.40
2022-10-06T17:06:22.557Z,22.65
2022-10-06T17:09:28.999Z,16.38
2022-10-06T17:12:33.677Z,16.13
2022-10-06T17:15:38.252Z,23.27
2022-10-06T17:18:43.363Z,20.40
2022-10-06T17:21:51.540Z,18.75
2022-10-06T17:24:57.572Z,16.67
2022-10-06T17:28:02.161Z,19.60
2022-10-06T17:31:07.397Z,28.65
2022-10-06T17:34:18.342Z,29.92
2022-10-06T17:37:24.695Z,27.05
2022-10-06T17:40:29.206Z,29.67
2022-10-06T17:43:38.778Z,14.52
2022-10-06T17:46:45.393Z,15.85
2022-10-06T17:49:53.569Z,19.17
2022-10-06T17:53:00.202Z,30.67
2022-10-06T17:56:10.039Z,25.92
2022-10-06T17:59:20.770Z,29.70
2022-10-06T18:02:25.336Z,23.23
2022-10-06T18:05:32.955Z,23.40
2022-10-06T18:08:43.314Z,30.48
2022-10-06T18:11:55.872Z,29.20
2022-10-06T18:15:00.220Z,20.63
2022-10-06T18:18:05.673Z,30.15
2022-10-06T18:21:11.464Z,37.75
2022-10-06T18:27:24.931Z,45.13
2022-10-06T18:30:29.605Z,39.10
2022-10-06T18:36:59.030Z,33.47
2022-10-06T18:40:06.985Z,33.05
2022-10-06T18:43:11.910Z,28.27
2022-10-06T18:46:36.737Z,30.47
2022-10-06T18:49:41.123Z,21.65
2022-10-06T18:52:45.540Z,17.75
2022-10-06T18:55:53.556Z,24.95
2022-10-06T18:58:59.910Z,21.55
2022-10-06T19:02:05.969Z,18.88
2022-10-06T19:05:10.756Z,19.13
2022-10-06T19:08:15.289Z,14.27
2022-10-06T19:11:38.361Z,14.90
2022-10-06T19:14:48.067Z,18.63
2022-10-06T19:17:52.583Z,17.60
2022-10-06T19:20:57.400Z,16.20
2022-10-06T19:24:06.318Z,19.10
2022-10-06T19:27:13.596Z,20.42
2022-10-06T19:30:23.832Z,17.67
2022-10-06T19:33:28.699Z,19.50
2022-10-06T19:36:33.704Z,18.20
2022-10-06T19:39:43.555Z,19.85
2022-10-06T19:42:48.271Z,15.13
2022-10-06T19:45:59.370Z,18.48
2022-10-06T19:49:06.569Z,19.45
2022-10-06T19:52:13.382Z,16.95
2022-10-06T19:55:19.007Z,24.50
2022-10-06T20:01:33.077Z,20.30
2022-10-06T20:04:41.328Z,51.63
2022-10-06T20:07:47.299Z,34.35
2022-10-06T20:10:52.036Z,30.88
2022-10-06T20:13:57.143Z,17.75
2022-10-06T20:17:02.428Z,21.58
2022-10-06T20:20:07.436Z,26.25
2022-10-06T20:23:11.956Z,28.13
2022-10-06T20:26:19.377Z,19.15
2022-10-06T20:29:26.495Z,25.10
2022-10-06T20:32:30.874Z,67.15
2022-10-06T20:35:35.318Z,37.05
2022-10-06T20:38:59.167Z,89.00
2022-10-06T20:42:04.420Z,59.22
2022-10-06T20:45:09.376Z,57.05
2022-10-06T20:48:15.217Z,34.27
2022-10-06T20:51:24.168Z,38.22
2022-10-06T20:54:35.428Z,31.88
2022-10-06T20:57:41.371Z,28.13
2022-10-06T21:00:45.853Z,26.67
2022-10-06T21:03:52.485Z,70.60
2022-10-06T21:06:57.887Z,40.40
2022-10-06T21:10:02.509Z,53.30
2022-10-06T21:13:07.774Z,36.75
2022-10-06T21:16:13.463Z,40.75
2022-10-06T21:22:23.389Z,41.95
2022-10-06T21:25:27.652Z,52.88
2022-10-06T21:28:32.713Z,29.85
2022-10-06T21:31:37.273Z,54.67
2022-10-06T21:34:41.909Z,45.25
2022-10-06T21:37:47.273Z,46.95
2022-10-06T21:40:51.768Z,38.00
2022-10-06T21:43:58.709Z,28.85
2022-10-06T21:47:03.409Z,25.70
2022-10-06T21:50:08.382Z,24.90
2022-10-06T21:53:12.817Z,17.97
2022-10-06T21:56:17.291Z,13.77
2022-10-06T21:59:21.858Z,28.23
2022-10-06T22:02:26.375Z,28.70
2022-10-06T22:05:30.867Z,29.13
2022-10-06T22:08:37.513Z,36.85
2022-10-06T22:11:42.775Z,53.25
2022-10-06T22:14:47.188Z,45.95
2022-10-06T22:17:51.696Z,49.95
2022-10-06T22:20:56.098Z,25.92
2022-10-06T22:24:03.181Z,25.60
2022-10-06T22:27:07.459Z,32.40
2022-10-06T22:30:12.486Z,39.05
2022-10-06T22:33:17.149Z,38.40
2022-10-06T22:36:21.534Z,38.22
2022-10-06T22:39:26.066Z,29.38
2022-10-06T22:42:30.452Z,47.50
2022-10-06T22:45:34.799Z,35.28
2022-10-06T22:48:40.097Z,28.23
2022-10-06T22:51:44.619Z,36.50
2022-10-06T22:54:49.201Z,45.28
2022-10-06T22:57:53.725Z,22.38
2022-10-06T23:00:58.329Z,24.92
2022-10-06T23:04:02.837Z,14.35
2022-10-06T23:07:07.389Z,20.85
2022-10-06T23:10:11.816Z,22.13
2022-10-06T23:13:16.227Z,20.92
2022-10-06T23:16:21.875Z,21.98
2022-10-06T23:19:26.278Z,19.77
2022-10-06T23:22:30.863Z,20.10
2022-10-06T23:25:39.437Z,19.23
2022-10-06T23:28:44.319Z,21.20
2022-10-06T23:31:48.949Z,26.03
2022-10-06T23:34:53.860Z,25.30
2022-10-06T23:37:58.245Z,25.58
2022-10-06T23:41:03.275Z,31.95
2022-10-06T23:44:07.635Z,36.20
2022-10-06T23:47:12.144Z,19.80
2022-10-06T23:50:16.673Z,16.13
2022-10-06T23:53:21.098Z,16.90
2022-10-06T23:56:26.310Z,16.88
2022-10-06T23:59:32.462Z,38.33
